Terminal Aerodrome Forecast
Issued by NWS

Home | Current Version | Previous Version | Text Only | Print | Product List | Glossary On
Versions: 1 2 3 4 5 6 7 8 9 10 11 12 13 14 15 16 17 18 19 20 21 22 23 24 25 26
000
FTAK31 PANC 052339
TAFAAQ
TAF
PAAQ 052339Z 0600/0624 VRB03KT P6SM OVC080
     FM060300 VRB03KT 6SM -RASN OVC035
     FM060600 VRB03KT 3SM -SN BR OVC025
     FM061000 VRB03KT 1SM -SN BR OVC015
     FM061500 VRB03KT 3SM -SN BR OVC020
     FM062000 VRB05KT P6SM SCT030 BKN050=

USA.gov is the U.S. government's official web portal to all federal, state and local government web resources and services.